• Join FlightAware (Why Join?)
  • Login
  • US Flag 
01:43PM EDT


 

Airport Tracker/Info


-or-


 

Live Flight TrackerFlight Track Log ✈ TAM3385 ✈ 23-Sep-2013 ✈ SBCF / CNF - SBGL / GIG

Flight Track Log - Related Links

Times and Time Zones

All times are in EDT time to prevent confusion due to time zone crossing. See the TAM3385 flight status page for this flight to view local times or setup timezone preferences in your user account.

Time Position Orientation Groundspeed Altitude Reporting Facility
EDT Latitude Longitude Course Direction KTS MPH feet Rate Location/Type
06:52AM -19.6300 -43.9730 90° East 115 132  Level FlightAware
06:53AM -19.6370 -43.9650 133° Southeast 165 190 5,460 Level FlightAware
06:53AM -19.6490 -43.9540 139° Southeast 167 192 3,200 6,120 Climbing FlightAware
06:53AM -19.6590 -43.9480 151° Southeast 177 204 3,600 1,200 Climbing FlightAware
06:53AM -19.6720 -43.9440 164° South 197 227 3,800 840 Climbing FlightAware
06:54AM -19.6920 -43.9390 167° South 225 259 4,100 720 Climbing FlightAware
06:54AM -19.7120 -43.9340 167° South 260 299 4,300 900 Climbing FlightAware
06:54AM -19.7370 -43.9260 163° South 289 333 4,700 1,380 Climbing FlightAware
06:55AM -19.7480 -43.9210 157° South 299 344 5,000 2,760 Climbing FlightAware
06:55AM -19.7750 -43.9050 151° Southeast 296 341 6,100 3,000 Climbing FlightAware
06:55AM -19.7990 -43.8900 150° Southeast 299 344 7,000 2,640 Climbing FlightAware
06:56AM -19.8300 -43.8720 151° Southeast 306 352 8,100 2,760 Climbing FlightAware
06:56AM -19.8550 -43.8580 152° Southeast 307 353 9,100 2,880 Climbing FlightAware
06:56AM -19.8610 -43.8560 163° South 305 351 9,300 3,000 Climbing FlightAware
06:56AM -19.8690 -43.8540 167° South 303 349 9,600 3,000 Climbing FlightAware
06:56AM -19.8750 -43.8530 171° South 303 349 9,800 2,160 Climbing FlightAware
06:57AM -19.9080 -43.8600 191° South 305 351 10,700 1,560 Climbing FlightAware
06:57AM -19.9610 -43.8730 193° South 345 397 11,400 1,680 Climbing FlightAware
06:58AM -20.0180 -43.8860 192° South 356 410 12,700 2,100 Climbing FlightAware
06:58AM -20.0750 -43.8990 192° South 366 421 13,900 2,100 Climbing FlightAware
06:59AM -20.1350 -43.9130 192° South 372 428 15,200 2,040 Climbing FlightAware
07:00AM -20.1940 -43.9260 192° South 380 437 16,300 1,620 Climbing FlightAware
07:00AM -20.2640 -43.9430 193° South 397 457 17,200 1,500 Climbing FlightAware
07:01AM -20.3210 -43.9560 192° South 407 468 18,100 1,560 Climbing FlightAware
07:01AM -20.3900 -43.9700 191° South 416 479 19,000 1,440 Climbing FlightAware
07:02AM -20.4560 -43.9760 185° South 426 490 19,800 1,440 Climbing FlightAware
07:03AM -20.5200 -43.9830 186° South 432 497 20,600 1,680 Climbing FlightAware
07:03AM -20.5970 -43.9900 185° South 431 496 21,800 1,620 Climbing FlightAware
07:04AM -20.6690 -43.9970 185° South 439 505 22,600 1,560 Climbing FlightAware
07:04AM -20.7420 -44.0050 186° South 437 503 23,700 1,320 Climbing FlightAware
07:05AM -20.8070 -44.0110 185° South 443 510 24,100 720 Climbing FlightAware
07:05AM -20.8730 -44.0170 185° South 446 513 24,500 1,440 Climbing FlightAware
07:06AM -20.9110 -44.0110 172° South 444 511 25,400 1,740 Climbing FlightAware
07:06AM -20.9750 -43.9980 169° South 425 489 26,000 480 Climbing FlightAware
07:07AM -21.0450 -43.9830 169° South 420 483 26,000  Level FlightAware
07:07AM -21.1110 -43.9690 169° South 423 487 26,000  Level FlightAware
07:08AM -21.1770 -43.9550 169° South 421 484 26,000  Level FlightAware
07:09AM -21.2300 -43.9670 192° South 379 436 26,000  Level FlightAware
07:09AM -21.2430 -43.9760 213° Southwest 367 422 26,000  Level FlightAware
07:09AM -21.2530 -43.9890 230° Southwest 356 410 26,000  Level FlightAware
07:09AM -21.2610 -44.0070 245° Southwest 346 398 26,000  Level FlightAware
07:09AM -21.2640 -44.0240 259° West 338 389 26,000  Level FlightAware
07:09AM -21.2590 -44.0500 282° West 330 380 26,000  Level FlightAware
07:10AM -21.2470 -44.0680 306° West 330 380 26,000  Level FlightAware
07:10AM -21.2340 -44.0780 324° Northwest 332 382 26,000  Level FlightAware
07:10AM -21.2210 -44.0830 340° North 333 383 26,000  Level FlightAware
07:10AM -21.1900 -44.0880 351° North 336 387 26,000  Level FlightAware
07:11AM -21.1460 -44.0910 356° North 340 391 26,000  Level FlightAware
07:12AM -21.0820 -44.1030 350° North 344 396 26,000  Level FlightAware
07:12AM -21.0070 -44.1000 North 355 409 26,000  Level FlightAware
07:13AM -20.9810 -44.0690 48° Northeast 368 423 26,000  Level FlightAware
07:13AM -20.9760 -44.0560 68° East 372 428 26,000  Level FlightAware
07:13AM -20.9740 -44.0330 85° East 374 430 26,000  Level FlightAware
07:13AM -20.9840 -43.9980 107° East 378 435 26,000  Level FlightAware
07:14AM -21.0000 -43.9770 129° Southeast 379 436 26,000  Level FlightAware
07:14AM -21.0160 -43.9660 147° Southeast 379 436 26,000  Level FlightAware
07:14AM -21.0280 -43.9610 159° South 378 435 26,000  Level FlightAware
07:14AM -21.0500 -43.9580 173° South 374 430 26,000  Level FlightAware
07:15AM -21.1090 -43.9630 185° South 370 426 26,000  Level FlightAware
07:15AM -21.1610 -43.9610 178° South 392 451 26,000  Level FlightAware
07:16AM -21.2170 -43.9460 166° South 419 482 26,000  Level FlightAware
07:16AM -21.2810 -43.9310 168° South 424 488 26,000  Level FlightAware
07:17AM -21.3510 -43.9190 171° South 425 489 26,000  Level FlightAware
07:18AM -21.4390 -43.8990 168° South 424 488 26,000  Level FlightAware
07:18AM -21.4980 -43.8850 168° South 424 488 26,000  Level FlightAware
07:19AM -21.5570 -43.8720 168° South 424 488 26,000  Level FlightAware
07:20AM -21.6150 -43.8590 168° South 424 488 26,000  Level FlightAware
07:20AM -21.6770 -43.8440 167° South 424 488 26,000  Level FlightAware
07:21AM -21.7360 -43.8310 168° South 424 488 26,000 -1,680 Level FlightAware
07:23AM -21.8292 -43.7804 153° Southeast  Level Estimated
07:24AM -21.8839 -43.7506 153° Southeast  Level Estimated
07:25AM -21.9387 -43.7208 153° Southeast  Level Estimated
07:26AM -21.9935 -43.6909 153° Southeast  Level Estimated
07:27AM -22.0483 -43.6611 153° Southeast  Level Estimated
07:28AM -22.1031 -43.6312 153° Southeast  Level Estimated
07:29AM -22.1578 -43.6013 153° Southeast  Level Estimated
07:29AM -22.4080 -43.5060 153° Southeast 326 375 11,900  Level FlightAware
07:30AM -22.3900 -43.4510 71° East 326 375 11,800 -120 Descending FlightAware
07:30AM -22.3750 -43.4030 71° East 326 375 11,800  Level FlightAware
07:31AM -22.3600 -43.3550 71° East 326 375 11,800 -900 Level FlightAware
07:32AM -22.3120 -43.1960 167° South 275 316 9,800 -1,200 Descending FlightAware
07:33AM -22.4627 -43.3296 167° South  Level Estimated
07:33AM -22.3040 -43.1700 72° East 274 315 9,400  Level FlightAware
07:33AM -22.2960 -43.1450 71° East 278 320 9,400  Level FlightAware
07:33AM -22.2950 -43.1350 84° East 279 321 9,400  Level FlightAware
07:34AM -22.3030 -43.1050 106° East 278 320 9,400  Level FlightAware
07:34AM -22.3150 -43.0800 117° Southeast 276 318 9,400  Level FlightAware
07:34AM -22.3280 -43.0500 115° Southeast 276 318 9,400  Level FlightAware
07:35AM -22.3370 -43.0300 116° Southeast 275 316 9,400  Level FlightAware
07:35AM -22.3490 -43.0030 116° Southeast 273 314 9,400  Level FlightAware
07:35AM -22.3640 -42.9730 118° Southeast 274 315 9,400  Level FlightAware
07:36AM -22.3740 -42.9490 114° Southeast 272 313 9,400  Level FlightAware
07:36AM -22.3860 -42.9250 118° Southeast 271 312 9,400  Level FlightAware
07:36AM -22.3990 -42.8960 116° Southeast 271 312 9,400  Level FlightAware
07:37AM -22.4100 -42.8720 116° Southeast 273 314 9,400  Level FlightAware
07:37AM -22.4220 -42.8470 117° Southeast 273 314 9,400  Level FlightAware
07:37AM -22.4330 -42.8210 115° Southeast 275 316 9,400 -180 Level FlightAware
07:38AM -22.4460 -42.7940 118° Southeast 274 315 9,300 -600 Descending FlightAware
07:38AM -22.4580 -42.7680 117° Southeast 271 312 9,000 -1,080 Descending FlightAware
07:39AM -22.4690 -42.7440 116° Southeast 268 308 8,600 -1,200 Descending FlightAware
07:39AM -22.4800 -42.7200 116° Southeast 268 308 8,200 -1,080 Descending FlightAware
07:39AM -22.4910 -42.6970 117° Southeast 265 305 7,900 -480 Descending FlightAware
07:39AM -22.5040 -42.6780 127° Southeast 267 307 7,900  Level FlightAware
07:40AM -22.5130 -42.6720 148° Southeast 266 306 7,900  Level FlightAware
07:40AM -22.5170 -42.6700 155° Southeast 265 305 7,900  Level FlightAware
07:40AM -22.5270 -42.6680 170° South 261 300 7,900  Level FlightAware
07:40AM -22.5500 -42.6740 194° South 246 283 7,900  Level FlightAware
07:41AM -22.5730 -42.6850 204° Southwest 245 282 7,900  Level FlightAware
07:41AM -22.5960 -42.6950 202° Southwest 247 284 7,900  Level FlightAware
07:41AM -22.6150 -42.7030 201° Southwest 248 285 7,900  Level FlightAware
07:42AM -22.6380 -42.7140 204° Southwest 250 288 7,900  Level FlightAware
07:42AM -22.6610 -42.7240 202° Southwest 249 287 7,900 -180 Level FlightAware
07:42AM -22.6890 -42.7360 202° Southwest 247 284 7,800 -780 Descending FlightAware
07:43AM -22.7120 -42.7460 202° Southwest 248 285 7,300 -1,260 Descending FlightAware
07:43AM -22.7360 -42.7570 203° Southwest 234 269 6,900 -840 Descending FlightAware
07:43AM -22.7470 -42.7620 203° Southwest 224 258 6,800 -600 Descending FlightAware
07:44AM -22.7650 -42.7710 205° Southwest 211 243 6,600 -600 Descending FlightAware
07:44AM -22.7850 -42.7820 207° Southwest 198 228 6,400 -780 Descending FlightAware
07:44AM -22.7910 -42.7880 223° Southwest 190 219 6,200 -1,500 Descending FlightAware
07:44AM -22.7920 -42.7910 250° West 187 215 6,100 -1,020 Descending FlightAware
07:44AM -22.7930 -42.7980 261° West 183 211 6,000 -1,200 Descending FlightAware
07:45AM -22.7890 -42.8190 282° West 186 214 5,500 -1,320 Descending FlightAware
07:45AM -22.7830 -42.8350 292° West 185 213 5,100 -1,260 Descending FlightAware
07:45AM -22.7750 -42.8570 292° West 187 215 4,600 -1,140 Descending FlightAware
07:46AM -22.7700 -42.8730 289° West 192 221 4,300 -960 Descending FlightAware
07:46AM -22.7630 -42.8910 293° West 194 223 4,000 -780 Descending FlightAware
07:46AM -22.7560 -42.9090 293° West 200 230 3,800 -720 Descending FlightAware
07:47AM -22.7470 -42.9330 292° West 202 232 3,500 -840 Descending FlightAware
07:47AM -22.7390 -42.9520 295° West 201 231 3,200 -780 Descending FlightAware
07:48AM -22.7320 -42.9710 292° West 199 229 3,000 -480 Descending FlightAware
07:48AM -22.7320 -42.9760 270° West 193 222 3,000 -480 Level FlightAware
07:48AM -22.7350 -42.9960 261° West 185 213 2,800 -900 Descending FlightAware
07:48AM -22.7390 -43.0130 256° West 183 211 2,400 -1,140 Descending FlightAware
07:49AM -22.7450 -43.0360 254° West 180 207 2,000 -1,140 Descending FlightAware
07:49AM -22.7490 -43.0520 255° West 182 209 1,600 -780 Descending FlightAware
07:49AM -22.7540 -43.0710 254° West 182 209 1,500 -180 Descending FlightAware
07:50AM -22.7590 -43.0880 252° West 180 207 1,500  Level FlightAware
07:50AM -22.7630 -43.1040 255° West 156 180 1,500  Level FlightAware
07:50AM -22.7670 -43.1210 256° West 145 167 1,500 -180 Level FlightAware
07:51AM -22.7710 -43.1350 253° West 140 161 1,400 -480 Descending FlightAware
07:51AM -22.7740 -43.1480 256° West 138 159 1,200 -480 Descending FlightAware
07:52AM -22.7800 -43.1700 254° West 134 154 1,000 -360 Descending FlightAware
07:54AM -22.8089 -43.2436 247° West  Level Estimated
07:55AM -22.8089 -43.2436 137° Southeast  Level Estimated
07:56AM -22.8089 -43.2436 137° Southeast  Level Estimated
07:57AM -22.8089 -43.2436 137° Southeast  Level Estimated
07:58AM -22.8089 -43.2436 137° Southeast  Level Estimated
07:59AM -22.8089 -43.2436 137° Southeast  Level Estimated
08:00AM -22.8089 -43.2436 137° Southeast  Level Estimated
08:01AM -22.8089 -43.2436 137° Southeast  Level Estimated
08:02AM -22.8089 -43.2436 137° Southeast  Level Estimated